Time;durP1;ratioP1;P1;durP2;ratioP2;P2;SDS_P1;SDS_P2;PMS_P1;PMS_P2;Temp;Humidity;BMP_temperature;BMP_pressure;BME280_temperature;BME280_humidity;BME280_pressure;Samples;Min_cycle;Max_cycle;Signal;HPM_P1;HPM_P2
2021/12/22 00:02:13;;;;;;;176.82;78.68;;;;;;;;;;6246625;28;20481;-71
2021/12/22 00:05:25;;;;;;;201.27;87.25;;;;;;;;;;6246224;28;20386;-71
2021/12/22 00:08:26;;;;;;;205.63;86.38;;;;;;;;;;6261647;28;20463;-72
2021/12/22 00:11:26;;;;;;;182.98;79.70;;;;;;;;;;6245636;28;20454;-71
2021/12/22 00:14:27;;;;;;;153.45;62.88;;;;;;;;;;6246502;28;20036;-71
2021/12/22 00:17:27;;;;;;;192.98;83.28;;;;;;;;;;6246066;28;20056;-71
2021/12/22 00:20:27;;;;;;;195.07;82.30;;;;;;;;;;6246028;28;20018;-71
2021/12/22 00:23:28;;;;;;;192.90;83.30;;;;;;;;;;6246255;28;20366;-71
2021/12/22 00:26:28;;;;;;;197.57;82.88;;;;;;;;;;6244757;28;20203;-71
2021/12/22 00:29:28;;;;;;;199.32;82.32;;;;;;;;;;6245842;28;20567;-71
2021/12/22 00:32:31;;;;;;;190.25;80.95;;;;;;;;;;6245934;28;20057;-71
2021/12/22 00:35:39;;;;;;;198.85;84.88;;;;;;;;;;6245864;28;20114;-71
2021/12/22 00:38:39;;;;;;;188.73;77.60;;;;;;;;;;6245330;28;20021;-71
2021/12/22 00:41:39;;;;;;;165.63;76.82;;;;;;;;;;6245555;28;20374;-71
2021/12/22 00:44:40;;;;;;;185.57;76.57;;;;;;;;;;6245506;28;20060;-71
2021/12/22 00:47:41;;;;;;;199.25;84.03;;;;;;;;;;6245497;28;20425;-71
2021/12/22 00:50:41;;;;;;;177.95;78.82;;;;;;;;;;6245184;28;20144;-71
2021/12/22 00:53:41;;;;;;;184.90;78.18;;;;;;;;;;6243867;28;20025;-71
2021/12/22 00:56:41;;;;;;;181.48;75.47;;;;;;;;;;6245003;28;20036;-71
2021/12/22 00:59:42;;;;;;;169.93;77.03;;;;;;;;;;6244965;28;20510;-71
2021/12/22 01:02:43;;;;;;;177.18;77.93;;;;;;;;;;6244738;28;20022;-71
2021/12/22 01:05:44;;;;;;;178.35;72.47;;;;;;;;;;6245033;28;20179;-71
2021/12/22 01:08:44;;;;;;;177.68;73.40;;;;;;;;;;6243061;28;20021;-71
2021/12/22 01:11:45;;;;;;;129.77;59.35;;;;;;;;;;6244353;28;20417;-71
2021/12/22 01:14:45;;;;;;;165.65;65.85;;;;;;;;;;6244497;28;20036;-71
2021/12/22 01:17:49;;;;;;;146.48;60.03;;;;;;;;;;6244462;28;20049;-71
2021/12/22 01:21:00;;;;;;;146.77;60.00;;;;;;;;;;6236652;28;20394;-71
2021/12/22 01:24:03;;;;;;;131.60;48.17;;;;;;;;;;6244229;28;20046;-71
2021/12/22 01:27:09;;;;;;;140.98;57.22;;;;;;;;;;6244244;28;20017;-71
2021/12/22 01:30:11;;;;;;;132.63;56.35;;;;;;;;;;6244209;28;20021;-71
2021/12/22 01:33:11;;;;;;;;;;;;;;;;;;6244617;28;20024;-71
2021/12/22 01:36:11;;;;;;;121.55;53.00;;;;;;;;;;6244019;28;20036;-71
2021/12/22 01:39:12;;;;;;;63.70;31.05;;;;;;;;;;6243880;28;20125;-71
2021/12/22 01:42:12;;;;;;;107.88;48.47;;;;;;;;;;6244158;28;20452;-71
2021/12/22 01:45:36;;;;;;;129.25;56.42;;;;;;;;;;6242358;28;20115;-71
2021/12/22 01:52:04;;;;;;;125.28;58.25;;;;;;;;;;6243918;28;20030;-71
2021/12/22 01:55:17;;;;;;;119.85;50.53;;;;;;;;;;6243416;28;20033;-71
2021/12/22 01:58:25;;;;;;;109.97;51.28;;;;;;;;;;6243684;28;20454;-71
2021/12/22 02:01:26;;;;;;;109.28;53.25;;;;;;;;;;6243587;28;20075;-71
2021/12/22 02:04:27;;;;;;;86.93;40.90;;;;;;;;;;6243440;28;20536;-71
2021/12/22 02:07:27;;;;;;;114.70;52.75;;;;;;;;;;6243268;28;20260;-71
2021/12/22 02:10:39;;;;;;;131.23;61.50;;;;;;;;;;6242898;28;20048;-70
2021/12/22 02:13:43;;;;;;;122.00;53.25;;;;;;;;;;6243400;28;20095;-71
2021/12/22 02:16:43;;;;;;;126.07;51.58;;;;;;;;;;6243204;28;20497;-70
2021/12/22 02:19:44;;;;;;;121.05;54.25;;;;;;;;;;6242948;28;20047;-71
2021/12/22 02:22:45;;;;;;;112.20;46.72;;;;;;;;;;6243814;28;20116;-71
2021/12/22 02:25:53;;;;;;;118.40;48.13;;;;;;;;;;6242805;28;20100;-71
2021/12/22 02:28:59;;;;;;;113.03;48.90;;;;;;;;;;6243088;28;20361;-71
2021/12/22 02:32:41;;;;;;;116.13;53.60;;;;;;;;;;6243222;28;20022;-71
2021/12/22 02:35:37;;;;;;;93.45;43.40;;;;;;;;;;6241922;28;20112;-71
2021/12/22 02:38:40;;;;;;;109.55;50.22;;;;;;;;;;6241439;28;20029;-71
2021/12/22 02:41:40;;;;;;;108.18;47.20;;;;;;;;;;6243112;28;20051;-70
2021/12/22 02:44:41;;;;;;;135.73;56.75;;;;;;;;;;6241591;28;20036;-70
2021/12/22 02:47:41;;;;;;;141.68;61.03;;;;;;;;;;6244564;28;20482;-70
2021/12/22 02:50:42;;;;;;;127.10;54.72;;;;;;;;;;6247856;28;20017;-71
2021/12/22 02:53:49;;;;;;;123.22;49.10;;;;;;;;;;6248064;28;20029;-70
2021/12/22 02:56:55;;;;;;;95.03;44.50;;;;;;;;;;6247890;28;20064;-70
2021/12/22 03:06:34;;;;;;;128.88;54.92;;;;;;;;;;6247435;28;20088;-70
2021/12/22 03:09:35;;;;;;;111.10;49.03;;;;;;;;;;6247252;28;20037;-70
2021/12/22 03:12:36;;;;;;;115.90;46.30;;;;;;;;;;6247314;28;20057;-71
2021/12/22 03:15:37;;;;;;;100.28;50.72;;;;;;;;;;6247222;28;20071;-71
2021/12/22 03:18:37;;;;;;;101.10;46.22;;;;;;;;;;6247113;28;20029;-71
2021/12/22 03:21:38;;;;;;;73.15;34.92;;;;;;;;;;6247203;28;20025;-71
2021/12/22 03:24:39;;;;;;;117.65;53.38;;;;;;;;;;6247257;28;20496;-71
2021/12/22 03:27:44;;;;;;;88.35;42.30;;;;;;;;;;6247119;28;20017;-71
2021/12/22 03:30:44;;;;;;;62.40;27.63;;;;;;;;;;6247010;28;20045;-70
2021/12/22 03:33:44;;;;;;;76.80;32.38;;;;;;;;;;6243652;28;20026;-70
2021/12/22 03:36:45;;;;;;;87.57;37.85;;;;;;;;;;6222283;28;20374;-70
2021/12/22 03:39:45;;;;;;;79.22;40.17;;;;;;;;;;6243010;28;20458;-71
2021/12/22 03:42:45;;;;;;;81.78;37.03;;;;;;;;;;6247214;28;20020;-70
2021/12/22 03:45:46;;;;;;;82.97;39.55;;;;;;;;;;6245202;28;20056;-71
2021/12/22 03:48:46;;;;;;;78.57;40.65;;;;;;;;;;6247153;28;20465;-71
2021/12/22 03:51:46;;;;;;;62.88;32.70;;;;;;;;;;6247187;28;20014;-71
2021/12/22 03:54:46;;;;;;;57.17;29.38;;;;;;;;;;6246613;28;20524;-71
2021/12/22 03:57:47;;;;;;;62.25;29.98;;;;;;;;;;6246776;28;20063;-71
2021/12/22 04:00:50;;;;;;;73.05;33.28;;;;;;;;;;6245350;28;20137;-71
2021/12/22 04:03:54;;;;;;;66.05;32.80;;;;;;;;;;6246160;28;20017;-71
2021/12/22 04:06:55;;;;;;;68.13;33.45;;;;;;;;;;6246329;28;20025;-71
2021/12/22 04:09:56;;;;;;;63.75;31.30;;;;;;;;;;6244561;28;20021;-71
2021/12/22 04:12:56;;;;;;;79.53;37.40;;;;;;;;;;6244761;28;20307;-71
2021/12/22 04:15:56;;;;;;;62.17;32.58;;;;;;;;;;6245670;28;20018;-71
2021/12/22 04:18:57;;;;;;;59.55;29.33;;;;;;;;;;6246215;28;20025;-71
2021/12/22 04:21:57;;;;;;;59.88;26.58;;;;;;;;;;6246289;28;20486;-70
2021/12/22 04:24:57;;;;;;;54.40;25.95;;;;;;;;;;6245518;28;20048;-70
2021/12/22 04:28:04;;;;;;;56.08;27.40;;;;;;;;;;6245666;28;20032;-71
2021/12/22 04:31:05;;;;;;;53.33;24.58;;;;;;;;;;6245828;28;20036;-71
2021/12/22 04:34:08;;;;;;;59.75;25.33;;;;;;;;;;6245426;28;20462;-71
2021/12/22 04:37:08;;;;;;;57.45;27.92;;;;;;;;;;6245555;28;20138;-71
2021/12/22 04:40:09;;;;;;;44.33;23.08;;;;;;;;;;6245337;28;20025;-71
2021/12/22 04:43:09;;;;;;;57.22;25.92;;;;;;;;;;6245522;28;20120;-71
2021/12/22 04:46:09;;;;;;;48.78;19.90;;;;;;;;;;6244723;28;20100;-71
2021/12/22 04:49:10;;;;;;;33.22;19.38;;;;;;;;;;6245394;28;20025;-70
2021/12/22 04:52:15;;;;;;;41.28;21.42;;;;;;;;;;6245540;28;20029;-71
2021/12/22 04:55:16;;;;;;;46.38;20.63;;;;;;;;;;6245000;28;20036;-71
2021/12/22 04:58:16;;;;;;;74.93;30.45;;;;;;;;;;6245106;28;20444;-71
2021/12/22 05:01:16;;;;;;;51.33;23.15;;;;;;;;;;6244851;28;20064;-71
2021/12/22 05:04:16;;;;;;;53.25;24.52;;;;;;;;;;6244825;28;20028;-71
2021/12/22 05:07:17;;;;;;;66.45;29.05;;;;;;;;;;6245097;28;20379;-70
2021/12/22 05:10:18;;;;;;;63.88;36.50;;;;;;;;;;6244042;28;20032;-70
2021/12/22 05:13:18;;;;;;;85.53;45.37;;;;;;;;;;6244934;28;20064;-70
2021/12/22 05:16:19;;;;;;;58.15;27.33;;;;;;;;;;6243985;28;20112;-71
2021/12/22 05:19:19;;;;;;;57.40;26.63;;;;;;;;;;6245291;28;20018;-71
2021/12/22 05:22:20;;;;;;;110.03;50.20;;;;;;;;;;6244865;28;20028;-71
2021/12/22 05:25:20;;;;;;;101.35;54.20;;;;;;;;;;6244294;28;20100;-71
2021/12/22 05:28:20;;;;;;;82.80;44.30;;;;;;;;;;6243993;28;20468;-71
2021/12/22 05:31:21;;;;;;;127.72;53.50;;;;;;;;;;6244114;28;20055;-71
2021/12/22 05:34:21;;;;;;;104.97;40.50;;;;;;;;;;6244041;28;20026;-76
2021/12/22 05:37:22;;;;;;;113.57;48.00;;;;;;;;;;6244305;28;20109;-71
2021/12/22 05:40:27;;;;;;;76.43;34.03;;;;;;;;;;6243805;28;20020;-71
2021/12/22 05:43:27;;;;;;;63.17;27.48;;;;;;;;;;6244436;28;20018;-71
2021/12/22 05:46:27;;;;;;;102.35;41.20;;;;;;;;;;6243377;28;20025;-71
2021/12/22 05:49:28;;;;;;;136.93;59.97;;;;;;;;;;6241921;28;20436;-71
2021/12/22 05:52:28;;;;;;;76.65;34.70;;;;;;;;;;6240870;28;20039;-71
2021/12/22 05:55:28;;;;;;;90.45;40.75;;;;;;;;;;6242987;28;20026;-71
2021/12/22 05:58:29;;;;;;;74.07;33.50;;;;;;;;;;6243386;28;20485;-71
2021/12/22 06:01:30;;;;;;;62.42;29.30;;;;;;;;;;6243771;28;20025;-71
2021/12/22 06:04:30;;;;;;;70.80;30.17;;;;;;;;;;6242703;28;20053;-71
2021/12/22 06:07:30;;;;;;;121.32;48.42;;;;;;;;;;6243035;28;20039;-71
2021/12/22 06:10:34;;;;;;;87.68;39.45;;;;;;;;;;6239544;28;20091;-71
2021/12/22 06:13:34;;;;;;;52.92;24.42;;;;;;;;;;6243269;28;20032;-71
2021/12/22 06:16:34;;;;;;;68.78;30.98;;;;;;;;;;6242001;28;20037;-71
2021/12/22 06:19:35;;;;;;;52.97;22.88;;;;;;;;;;6241625;28;20583;-71
2021/12/22 06:22:36;;;;;;;53.45;25.13;;;;;;;;;;6242960;28;20478;-71
2021/12/22 06:25:37;;;;;;;57.95;27.63;;;;;;;;;;6242302;28;20381;-71
2021/12/22 06:28:37;;;;;;;133.75;57.22;;;;;;;;;;6242841;28;20033;-72
2021/12/22 06:31:37;;;;;;;78.25;33.28;;;;;;;;;;6236901;28;20092;-71
2021/12/22 06:34:38;;;;;;;47.53;24.88;;;;;;;;;;6239236;28;20018;-71
2021/12/22 06:37:38;;;;;;;67.47;30.30;;;;;;;;;;6242991;28;20409;-71
2021/12/22 06:40:38;;;;;;;62.85;29.33;;;;;;;;;;6239368;28;20049;-71
2021/12/22 06:43:38;;;;;;;53.00;27.30;;;;;;;;;;6242589;28;20057;-71
2021/12/22 06:46:41;;;;;;;52.95;23.90;;;;;;;;;;6242162;28;20033;-71
2021/12/22 06:49:41;;;;;;;69.90;31.45;;;;;;;;;;6238815;28;20358;-71
2021/12/22 06:52:42;;;;;;;103.57;42.47;;;;;;;;;;6232161;28;20052;-71
2021/12/22 06:55:42;;;;;;;77.70;33.03;;;;;;;;;;6239983;28;20056;-71
2021/12/22 06:58:42;;;;;;;99.30;37.10;;;;;;;;;;6234436;28;20393;-71
2021/12/22 07:01:42;;;;;;;75.35;34.17;;;;;;;;;;6232590;28;20025;-71
2021/12/22 07:04:43;;;;;;;54.85;26.23;;;;;;;;;;6230777;28;20068;-71
2021/12/22 07:07:43;;;;;;;82.38;33.63;;;;;;;;;;6225041;28;20029;-71
2021/12/22 07:10:43;;;;;;;56.67;25.88;;;;;;;;;;6237613;28;20128;-71
2021/12/22 07:13:44;;;;;;;63.08;26.30;;;;;;;;;;6230749;28;20029;-71
2021/12/22 07:16:45;;;;;;;99.40;41.22;;;;;;;;;;6216522;28;20374;-71
2021/12/22 07:19:46;;;;;;;56.42;22.10;;;;;;;;;;6238087;28;20523;-71
2021/12/22 07:22:46;;;;;;;41.22;22.38;;;;;;;;;;6233711;28;20029;-71
2021/12/22 07:25:46;;;;;;;48.40;18.95;;;;;;;;;;6241560;28;20158;-71
2021/12/22 07:28:48;;;;;;;47.05;22.02;;;;;;;;;;6242520;28;20104;-71
2021/12/22 07:31:48;;;;;;;51.38;24.10;;;;;;;;;;6257753;28;20488;-71
2021/12/22 07:34:57;;;;;;;40.53;20.20;;;;;;;;;;6244124;28;20045;-71
2021/12/22 07:38:16;;;;;;;52.88;23.95;;;;;;;;;;6246656;28;20021;-71
2021/12/22 07:41:16;;;;;;;58.50;27.80;;;;;;;;;;6246620;28;20478;-71
2021/12/22 07:44:16;;;;;;;52.38;28.60;;;;;;;;;;6246731;28;20032;-71
2021/12/22 07:47:16;;;;;;;59.40;28.52;;;;;;;;;;6243989;28;20025;-71
2021/12/22 07:50:17;;;;;;;68.70;35.58;;;;;;;;;;6243686;28;20021;-71
2021/12/22 07:53:17;;;;;;;52.95;26.60;;;;;;;;;;6244622;28;20452;-71
2021/12/22 07:56:17;;;;;;;65.13;31.42;;;;;;;;;;6244176;28;20017;-71
2021/12/22 07:59:17;;;;;;;78.55;33.58;;;;;;;;;;6241651;28;20055;-71
2021/12/22 08:02:18;;;;;;;199.02;85.35;;;;;;;;;;6241113;28;20087;-71
2021/12/22 08:05:18;;;;;;;264.67;107.78;;;;;;;;;;6242489;28;20334;-71
2021/12/22 08:08:19;;;;;;;218.73;94.03;;;;;;;;;;6240416;28;20104;-71
2021/12/22 08:11:19;;;;;;;124.75;55.50;;;;;;;;;;6238298;28;20069;-69
2021/12/22 08:14:22;;;;;;;115.43;45.95;;;;;;;;;;6244787;28;20017;-69
2021/12/22 08:17:23;;;;;;;74.28;33.55;;;;;;;;;;6231941;28;20516;-70
2021/12/22 08:20:24;;;;;;;79.85;37.15;;;;;;;;;;6238351;28;20097;-70
2021/12/22 08:23:24;;;;;;;104.68;41.22;;;;;;;;;;6245623;28;20101;-69
2021/12/22 08:26:24;;;;;;;119.00;50.33;;;;;;;;;;6245739;28;20021;-69
2021/12/22 08:29:25;;;;;;;117.20;49.75;;;;;;;;;;6245119;28;20405;-70
2021/12/22 08:32:25;;;;;;;101.22;41.88;;;;;;;;;;6245854;28;20037;-69
2021/12/22 08:35:28;;;;;;;123.13;50.08;;;;;;;;;;6226407;28;20029;-69
2021/12/22 08:41:50;;;;;;;103.75;39.55;;;;;;;;;;6241662;28;20034;-70
2021/12/22 08:44:50;;;;;;;83.43;40.05;;;;;;;;;;6230458;28;20071;-70
2021/12/22 08:47:51;;;;;;;210.52;96.80;;;;;;;;;;6240394;28;20397;-70
2021/12/22 08:50:51;;;;;;;242.10;130.65;;;;;;;;;;6231340;28;20112;-70
2021/12/22 08:53:52;;;;;;;280.73;147.82;;;;;;;;;;6232534;28;20026;-70
2021/12/22 08:56:55;;;;;;;317.60;165.50;;;;;;;;;;6227432;28;20113;-70
2021/12/22 08:59:55;;;;;;;286.02;145.05;;;;;;;;;;6231794;28;20252;-70
2021/12/22 09:02:55;;;;;;;153.43;74.65;;;;;;;;;;6230606;28;20168;-70
2021/12/22 09:05:55;;;;;;;207.75;109.15;;;;;;;;;;6235111;28;20022;-69
2021/12/22 09:08:56;;;;;;;68.03;31.67;;;;;;;;;;6225201;28;20489;-70
2021/12/22 09:11:56;;;;;;;43.80;21.77;;;;;;;;;;6227291;28;20439;-69
2021/12/22 09:14:57;;;;;;;31.88;18.80;;;;;;;;;;6233315;28;20116;-70
2021/12/22 09:17:57;;;;;;;46.60;25.10;;;;;;;;;;6242520;28;20029;-70
2021/12/22 09:20:57;;;;;;;69.90;26.75;;;;;;;;;;6234631;28;20061;-70
2021/12/22 09:23:58;;;;;;;63.05;29.90;;;;;;;;;;6231195;28;20017;-70
2021/12/22 09:26:59;;;;;;;35.88;16.20;;;;;;;;;;6239284;28;20022;-70
2021/12/22 09:29:59;;;;;;;37.17;16.90;;;;;;;;;;6242845;28;20040;-70
2021/12/22 09:32:59;;;;;;;23.33;11.30;;;;;;;;;;6229976;28;20030;-70
2021/12/22 09:36:00;;;;;;;31.95;14.45;;;;;;;;;;6227610;28;20452;-70
2021/12/22 09:39:00;;;;;;;47.25;19.80;;;;;;;;;;6239115;28;20124;-70
2021/12/22 09:42:00;;;;;;;42.92;16.67;;;;;;;;;;6244530;28;20068;-70
2021/12/22 09:45:02;;;;;;;33.58;12.80;;;;;;;;;;6228874;28;20028;-69
2021/12/22 09:54:08;;;;;;;26.60;13.15;;;;;;;;;;6235744;28;20049;-71
2021/12/22 09:57:09;;;;;;;39.90;20.42;;;;;;;;;;6235323;28;20377;-71
2021/12/22 10:00:09;;;;;;;52.97;22.40;;;;;;;;;;6225950;28;20014;-71
2021/12/22 10:03:10;;;;;;;43.35;17.55;;;;;;;;;;6227943;28;20017;-71
2021/12/22 10:06:11;;;;;;;28.73;14.30;;;;;;;;;;6228189;28;20033;-71
2021/12/22 10:09:11;;;;;;;25.33;12.95;;;;;;;;;;6226094;28;20747;-71
2021/12/22 10:12:16;;;;;;;46.55;23.50;;;;;;;;;;6236805;28;20073;-71
2021/12/22 10:15:16;;;;;;;21.17;11.38;;;;;;;;;;6230486;28;20052;-71
2021/12/22 10:18:18;;;;;;;17.38;9.05;;;;;;;;;;6227856;28;20021;-71
2021/12/22 10:21:21;;;;;;;27.15;14.25;;;;;;;;;;6237095;28;20030;-71
2021/12/22 10:24:32;;;;;;;41.95;21.52;;;;;;;;;;6239868;28;20025;-71
2021/12/22 10:27:33;;;;;;;29.07;14.23;;;;;;;;;;6229467;28;20033;-71
2021/12/22 10:30:35;;;;;;;31.92;14.90;;;;;;;;;;6242971;28;20271;-71
2021/12/22 10:33:38;;;;;;;23.45;10.68;;;;;;;;;;6242488;28;20053;-71
2021/12/22 10:36:49;;;;;;;20.15;8.65;;;;;;;;;;6242622;28;20021;-71
2021/12/22 10:39:50;;;;;;;21.75;9.80;;;;;;;;;;6260010;28;20018;-71
2021/12/22 10:42:50;;;;;;;28.58;14.02;;;;;;;;;;6243094;28;20028;-71
2021/12/22 10:45:52;;;;;;;80.30;37.33;;;;;;;;;;6242681;28;20031;-71
2021/12/22 10:49:25;;;;;;;30.58;13.20;;;;;;;;;;6229289;28;20044;-71
2021/12/22 10:52:26;;;;;;;41.33;17.45;;;;;;;;;;6189563;28;20045;-71
2021/12/22 10:55:35;;;;;;;34.30;17.42;;;;;;;;;;6241987;28;20112;-72
2021/12/22 10:58:35;;;;;;;48.25;15.00;;;;;;;;;;6241939;28;20022;-72
2021/12/22 11:01:37;;;;;;;49.92;21.27;;;;;;;;;;6241428;28;20052;-72
2021/12/22 11:04:42;;;;;;;65.97;25.92;;;;;;;;;;6221156;28;20117;-72
2021/12/22 11:07:43;;;;;;;41.15;12.73;;;;;;;;;;6233121;28;20501;-72
2021/12/22 11:10:43;;;;;;;28.05;11.88;;;;;;;;;;6238044;28;20564;-72
2021/12/22 11:13:44;;;;;;;17.00;8.55;;;;;;;;;;6247714;28;20025;-71
2021/12/22 11:16:54;;;;;;;24.85;12.30;;;;;;;;;;6246931;28;20026;-71
2021/12/22 11:19:58;;;;;;;50.40;19.48;;;;;;;;;;6242146;28;20021;-71
2021/12/22 11:23:00;;;;;;;43.03;18.38;;;;;;;;;;6243641;28;20029;-72
2021/12/22 11:26:00;;;;;;;45.60;17.75;;;;;;;;;;6236765;28;20018;-72
2021/12/22 11:29:00;;;;;;;22.52;12.10;;;;;;;;;;6240222;28;20053;-72
2021/12/22 11:32:02;;;;;;;44.55;20.52;;;;;;;;;;6233010;28;20026;-72
2021/12/22 11:35:03;;;;;;;46.80;22.23;;;;;;;;;;6229474;28;20033;-72
2021/12/22 11:38:04;;;;;;;33.85;16.33;;;;;;;;;;6243605;28;20035;-72
2021/12/22 11:41:14;;;;;;;13.02;5.57;;;;;;;;;;6246574;28;20362;-72
2021/12/22 11:44:14;;;;;;;10.25;6.28;;;;;;;;;;6244791;28;20371;-72
2021/12/22 11:47:16;;;;;;;12.52;5.18;;;;;;;;;;6243224;28;20056;-72
2021/12/22 11:50:25;;;;;;;14.02;6.07;;;;;;;;;;6246739;28;20021;-73
2021/12/22 11:53:25;;;;;;;40.10;17.33;;;;;;;;;;6247228;28;20029;-73
2021/12/22 11:56:33;;;;;;;20.95;6.72;;;;;;;;;;6245081;28;20068;-72
2021/12/22 11:59:38;;;;;;;70.38;24.75;;;;;;;;;;6236815;28;20103;-72
2021/12/22 12:02:38;;;;;;;59.70;24.25;;;;;;;;;;6237675;28;20398;-72
2021/12/22 12:05:38;;;;;;;44.63;19.63;;;;;;;;;;6232854;28;20328;-73
2021/12/22 12:08:39;;;;;;;26.35;11.95;;;;;;;;;;6238713;28;20144;-73
2021/12/22 12:11:58;;;;;;;34.65;11.85;;;;;;;;;;6243973;28;20143;-73
2021/12/22 12:15:10;;;;;;;20.80;9.80;;;;;;;;;;6239580;28;20045;-73
2021/12/22 12:21:48;;;;;;;15.10;7.30;;;;;;;;;;6230787;28;20678;-73
2021/12/22 12:24:54;;;;;;;18.52;9.40;;;;;;;;;;6230458;28;20022;-73
2021/12/22 12:27:55;;;;;;;17.27;6.97;;;;;;;;;;6235221;28;20108;-72
2021/12/22 12:30:56;;;;;;;18.33;7.68;;;;;;;;;;6245342;28;20029;-73
2021/12/22 12:34:16;;;;;;;13.83;5.93;;;;;;;;;;6245971;28;20029;-73
2021/12/22 12:37:36;;;;;;;58.08;26.88;;;;;;;;;;6245175;28;20032;-73
2021/12/22 12:40:55;;;;;;;17.35;7.97;;;;;;;;;;6220783;28;20080;-73
2021/12/22 12:43:57;;;;;;;19.92;8.02;;;;;;;;;;6234092;28;20069;-73
2021/12/22 12:46:57;;;;;;;9.77;3.92;;;;;;;;;;6220453;28;20026;-73
2021/12/22 12:50:17;;;;;;;13.75;7.55;;;;;;;;;;6228560;28;20028;-73
2021/12/22 12:53:20;;;;;;;17.63;8.23;;;;;;;;;;6244597;28;20025;-73
2021/12/22 12:56:23;;;;;;;16.65;7.22;;;;;;;;;;6242832;28;20112;-73
2021/12/22 12:59:39;;;;;;;14.35;5.50;;;;;;;;;;6249397;28;21225;-73
2021/12/22 13:02:39;;;;;;;15.80;7.38;;;;;;;;;;6240491;28;20536;-73
2021/12/22 13:05:40;;;;;;;15.40;7.07;;;;;;;;;;6241253;28;20033;-73
2021/12/22 13:08:40;;;;;;;17.83;8.73;;;;;;;;;;6255810;28;20017;-74
2021/12/22 13:12:30;;;;;;;14.38;6.25;;;;;;;;;;6234804;28;20551;-73
2021/12/22 13:18:38;;;;;;;12.90;6.53;;;;;;;;;;6234695;28;20544;-74
2021/12/22 13:21:38;;;;;;;9.02;4.20;;;;;;;;;;6243565;28;20036;-74
2021/12/22 13:24:38;;;;;;;7.97;5.32;;;;;;;;;;6242538;28;20440;-73
2021/12/22 13:27:40;;;;;;;27.67;11.80;;;;;;;;;;6229204;28;20488;-73
2021/12/22 13:30:42;;;;;;;13.68;6.40;;;;;;;;;;6229331;28;20116;-73
2021/12/22 13:33:51;;;;;;;13.85;7.30;;;;;;;;;;6231676;28;20032;-74
2021/12/22 13:36:58;;;;;;;16.70;7.90;;;;;;;;;;6218425;28;20018;-74
2021/12/22 13:39:58;;;;;;;18.08;7.68;;;;;;;;;;6240411;28;20478;-74
2021/12/22 13:42:58;;;;;;;19.95;6.68;;;;;;;;;;6242143;28;20025;-74
2021/12/22 13:46:11;;;;;;;30.13;10.93;;;;;;;;;;6242241;28;20370;-74
2021/12/22 13:49:13;;;;;;;25.65;11.13;;;;;;;;;;6234278;28;20026;-74
2021/12/22 13:52:13;;;;;;;33.45;12.00;;;;;;;;;;6241455;28;20021;-74
2021/12/22 13:55:13;;;;;;;35.45;13.93;;;;;;;;;;6239175;28;20136;-74
2021/12/22 13:58:30;;;;;;;27.00;12.68;;;;;;;;;;6223660;28;20030;-74
2021/12/22 14:01:34;;;;;;;37.47;15.32;;;;;;;;;;6221592;28;20079;-74
2021/12/22 14:04:36;;;;;;;31.52;12.50;;;;;;;;;;6226967;28;20026;-74
2021/12/22 14:07:36;;;;;;;28.48;12.00;;;;;;;;;;6245853;28;20037;-74
2021/12/22 14:10:36;;;;;;;31.52;15.45;;;;;;;;;;6255812;28;20560;-74
2021/12/22 14:13:37;;;;;;;34.55;14.10;;;;;;;;;;6227212;28;20125;-74
2021/12/22 14:16:37;;;;;;;43.67;18.13;;;;;;;;;;6235924;28;20033;-74
2021/12/22 14:19:38;;;;;;;43.08;17.85;;;;;;;;;;6241494;28;20544;-74
2021/12/22 14:22:40;;;;;;;30.63;13.48;;;;;;;;;;6237355;28;20047;-74
2021/12/22 14:25:41;;;;;;;30.70;14.10;;;;;;;;;;6233764;28;20036;-74
2021/12/22 14:28:41;;;;;;;30.63;12.57;;;;;;;;;;6242802;28;20025;-74
2021/12/22 14:32:14;;;;;;;30.10;13.77;;;;;;;;;;6233775;28;20121;-74
2021/12/22 14:35:14;;;;;;;31.92;17.23;;;;;;;;;;6195467;28;20049;-74
2021/12/22 14:38:19;;;;;;;47.63;20.70;;;;;;;;;;6224637;28;20358;-74
2021/12/22 14:41:26;;;;;;;52.33;22.60;;;;;;;;;;6237619;28;20025;-74
2021/12/22 14:44:26;;;;;;;50.78;19.88;;;;;;;;;;6245845;28;20017;-74
2021/12/22 14:47:27;;;;;;;50.35;23.77;;;;;;;;;;6250943;28;20147;-74
2021/12/22 14:50:27;;;;;;;62.15;27.35;;;;;;;;;;6249465;28;20059;-74
2021/12/22 14:53:30;;;;;;;69.57;26.80;;;;;;;;;;6251781;28;20366;-74
2021/12/22 14:56:46;;;;;;;65.65;30.98;;;;;;;;;;6249913;28;20029;-74
2021/12/22 14:59:46;;;;;;;65.38;26.95;;;;;;;;;;6251156;28;20053;-74
2021/12/22 15:02:46;;;;;;;71.63;30.92;;;;;;;;;;6251062;28;20424;-74
2021/12/22 15:05:51;;;;;;;66.28;28.98;;;;;;;;;;6249197;28;20415;-74
2021/12/22 15:08:52;;;;;;;68.63;30.33;;;;;;;;;;6241380;28;20470;-74
2021/12/22 15:11:52;;;;;;;70.80;32.65;;;;;;;;;;6229589;28;20057;-74
2021/12/22 15:14:52;;;;;;;72.10;31.88;;;;;;;;;;6223184;28;20108;-74
2021/12/22 15:17:52;;;;;;;61.75;26.00;;;;;;;;;;6236237;28;20060;-74
2021/12/22 15:20:53;;;;;;;66.60;28.23;;;;;;;;;;6235425;28;20394;-74
2021/12/22 15:23:53;;;;;;;68.05;33.05;;;;;;;;;;6242306;28;20029;-75
2021/12/22 15:26:53;;;;;;;91.50;39.70;;;;;;;;;;6237927;28;20030;-75
2021/12/22 15:29:53;;;;;;;74.28;36.35;;;;;;;;;;6224903;28;20433;-75
2021/12/22 15:32:54;;;;;;;94.45;42.90;;;;;;;;;;6246588;28;20021;-75
2021/12/22 15:35:55;;;;;;;99.35;44.85;;;;;;;;;;6248107;28;20033;-75
2021/12/22 15:38:55;;;;;;;95.47;42.10;;;;;;;;;;6248515;28;20041;-75
2021/12/22 15:41:55;;;;;;;114.80;45.90;;;;;;;;;;6242902;28;20032;-75
2021/12/22 15:44:55;;;;;;;109.57;47.55;;;;;;;;;;6253714;28;20033;-75
2021/12/22 15:47:56;;;;;;;78.03;35.20;;;;;;;;;;6233439;28;20034;-74
2021/12/22 15:50:56;;;;;;;102.13;43.35;;;;;;;;;;6239041;28;20028;-74
2021/12/22 15:53:57;;;;;;;99.88;44.30;;;;;;;;;;6243807;28;20021;-74
2021/12/22 15:56:58;;;;;;;112.80;44.00;;;;;;;;;;6232077;28;20036;-75
2021/12/22 15:59:58;;;;;;;96.18;44.47;;;;;;;;;;6245536;28;20049;-74
2021/12/22 16:02:59;;;;;;;105.37;45.00;;;;;;;;;;6218934;28;20026;-74
2021/12/22 16:05:59;;;;;;;138.57;62.88;;;;;;;;;;6220268;28;20021;-74
2021/12/22 16:08:59;;;;;;;109.13;48.83;;;;;;;;;;6219256;28;20025;-74
2021/12/22 16:12:00;;;;;;;138.77;60.50;;;;;;;;;;6233420;28;20084;-74
2021/12/22 16:15:00;;;;;;;140.70;59.20;;;;;;;;;;6237900;28;20029;-74
2021/12/22 16:18:00;;;;;;;140.48;53.28;;;;;;;;;;6242111;28;20033;-74
2021/12/22 16:21:01;;;;;;;95.55;42.72;;;;;;;;;;6243806;28;20037;-73
2021/12/22 16:24:01;;;;;;;99.95;44.53;;;;;;;;;;6242801;28;20014;-73
2021/12/22 16:27:01;;;;;;;97.32;37.67;;;;;;;;;;6238048;28;20030;-73
2021/12/22 16:30:03;;;;;;;112.33;43.93;;;;;;;;;;6235153;28;20578;-73
2021/12/22 16:33:04;;;;;;;96.55;44.42;;;;;;;;;;6239080;28;20067;-73
2021/12/22 16:36:04;;;;;;;72.07;32.20;;;;;;;;;;6233283;28;20022;-73
2021/12/22 16:39:04;;;;;;;93.40;41.10;;;;;;;;;;6239509;28;20010;-74
2021/12/22 16:42:05;;;;;;;95.57;41.08;;;;;;;;;;6231288;28;20052;-72
2021/12/22 16:45:06;;;;;;;105.00;43.45;;;;;;;;;;6227646;28;20048;-72
2021/12/22 16:48:06;;;;;;;104.85;45.17;;;;;;;;;;6232945;28;20025;-72
2021/12/22 16:51:07;;;;;;;134.27;58.83;;;;;;;;;;6232561;28;20021;-72
2021/12/22 16:54:07;;;;;;;141.65;59.03;;;;;;;;;;6242034;28;20028;-72
2021/12/22 16:57:07;;;;;;;118.80;55.58;;;;;;;;;;6231337;28;20109;-72
2021/12/22 17:00:10;;;;;;;143.95;62.35;;;;;;;;;;6238663;28;20048;-72
2021/12/22 17:03:10;;;;;;;150.02;66.03;;;;;;;;;;6232244;28;20021;-72
2021/12/22 17:06:11;;;;;;;63.33;33.58;;;;;;;;;;6218501;28;20502;-72
2021/12/22 17:09:11;;;;;;;81.97;35.67;;;;;;;;;;6224367;28;20017;-72
2021/12/22 17:12:12;;;;;;;67.45;31.75;;;;;;;;;;6243529;28;20419;-72
2021/12/22 17:15:13;;;;;;;72.70;34.67;;;;;;;;;;6241491;28;20107;-72
2021/12/22 17:18:15;;;;;;;74.78;33.85;;;;;;;;;;6231177;28;20315;-71
2021/12/22 17:21:16;;;;;;;82.38;36.67;;;;;;;;;;6241926;28;20492;-71
2021/12/22 17:24:17;;;;;;;92.68;41.47;;;;;;;;;;6241005;28;20021;-71
2021/12/22 17:27:17;;;;;;;83.83;37.23;;;;;;;;;;6236370;28;20568;-72
2021/12/22 17:30:19;;;;;;;98.97;38.90;;;;;;;;;;6233466;28;20024;-71
2021/12/22 17:33:19;;;;;;;;;;;;;;;;;;6226316;28;20486;-71
2021/12/22 17:36:19;;;;;;;92.13;40.20;;;;;;;;;;6242467;28;20496;-71
2021/12/22 17:39:20;;;;;;;71.40;33.50;;;;;;;;;;6242017;28;20391;-71
2021/12/22 17:42:20;;;;;;;92.20;38.57;;;;;;;;;;6242520;28;20096;-71
2021/12/22 17:45:21;;;;;;;94.57;38.40;;;;;;;;;;6242765;28;20325;-71
2021/12/22 17:48:23;;;;;;;89.70;37.70;;;;;;;;;;6237496;28;20025;-71
2021/12/22 17:51:23;;;;;;;78.28;33.30;;;;;;;;;;6237682;28;20607;-71
2021/12/22 17:54:23;;;;;;;74.77;34.13;;;;;;;;;;6240211;28;20014;-71
2021/12/22 17:57:24;;;;;;;73.47;32.27;;;;;;;;;;6219183;28;20105;-71
2021/12/22 18:00:24;;;;;;;70.60;30.73;;;;;;;;;;6219220;28;20014;-71
2021/12/22 18:03:30;;;;;;;65.00;31.50;;;;;;;;;;6218995;28;20024;-70
2021/12/22 18:06:33;;;;;;;68.70;30.52;;;;;;;;;;6219183;28;20025;-70